Time;durP1;ratioP1;P1;durP2;ratioP2;P2;SDS_P1;SDS_P2;PMS_P1;PMS_P2;Temp;Humidity;BMP_temperature;BMP_pressure;BME280_temperature;BME280_humidity;BME280_pressure;Samples;Min_cycle;Max_cycle;Signal;HPM_P1;HPM_P2
2022/06/29 00:00:22;;;;;;;4.82;4.43;;;18.50;78.80;;;;;;4997049;28;20030;-68
2022/06/29 00:02:48;;;;;;;4.40;4.00;;;18.50;78.60;;;;;;4993179;28;20045;-68
2022/06/29 00:05:17;;;;;;;4.28;3.88;;;18.50;78.80;;;;;;4981548;28;20044;-68
2022/06/29 00:07:43;;;;;;;4.43;4.07;;;18.50;78.70;;;;;;4996579;28;20165;-68
2022/06/29 00:10:10;;;;;;;4.07;3.78;;;18.50;78.60;;;;;;4993367;28;20125;-68
2022/06/29 00:12:38;;;;;;;4.00;3.75;;;18.50;78.60;;;;;;4992147;28;20129;-68
2022/06/29 00:15:05;;;;;;;4.07;3.60;;;18.50;78.40;;;;;;4994910;28;20248;-68
2022/06/29 00:17:32;;;;;;;4.32;4.00;;;18.50;78.20;;;;;;4995819;28;20936;-68
2022/06/29 00:19:59;;;;;;;4.10;3.80;;;18.60;78.10;;;;;;4995596;28;20049;-68
2022/06/29 00:22:26;;;;;;;4.30;3.97;;;18.60;77.90;;;;;;4992771;28;20033;-68
2022/06/29 00:24:52;;;;;;;5.18;4.72;;;18.60;77.90;;;;;;4995638;28;20573;-68
2022/06/29 00:27:18;;;;;;;6.30;4.50;;;18.60;77.90;;;;;;4993492;28;20046;-68
2022/06/29 00:29:43;;;;;;;5.13;4.60;;;18.50;77.80;;;;;;4996645;28;20042;-68
2022/06/29 00:32:09;;;;;;;4.63;4.32;;;18.50;78.00;;;;;;4994596;28;20494;-67
2022/06/29 00:34:35;;;;;;;4.82;4.35;;;18.40;78.10;;;;;;4994335;28;20062;-68
2022/06/29 00:37:03;;;;;;;4.75;4.43;;;18.30;78.30;;;;;;4993643;28;20038;-67
2022/06/29 00:39:29;;;;;;;5.10;4.60;;;18.30;78.60;;;;;;4992558;28;20404;-68
2022/06/29 00:41:55;;;;;;;5.18;4.65;;;18.30;78.90;;;;;;4994405;28;20128;-68
2022/06/29 00:44:21;;;;;;;4.72;4.32;;;18.20;78.90;;;;;;4995593;28;20035;-68
2022/06/29 00:46:53;;;;;;;4.70;4.35;;;18.10;79.20;;;;;;4993625;28;20058;-67
2022/06/29 00:49:20;;;;;;;3.83;3.53;;;18.10;79.40;;;;;;4993954;28;20064;-68
2022/06/29 00:51:54;;;;;;;4.82;3.88;;;18.10;79.20;;;;;;4994858;28;20038;-68
2022/06/29 00:54:25;;;;;;;4.35;3.85;;;18.00;79.60;;;;;;4994442;28;20042;-68
2022/06/29 00:56:51;;;;;;;4.60;4.15;;;18.00;79.50;;;;;;4992597;28;20065;-68
2022/06/29 00:59:25;;;;;;;4.03;3.70;;;18.10;79.40;;;;;;4999733;28;20493;-68
2022/06/29 01:01:51;;;;;;;5.63;3.90;;;18.10;79.50;;;;;;5001569;28;20493;-68
2022/06/29 01:04:17;;;;;;;4.38;3.97;;;18.10;79.20;;;;;;4998658;28;20046;-67
2022/06/29 01:06:44;;;;;;;4.97;4.00;;;18.10;79.10;;;;;;4995303;28;20026;-68
2022/06/29 01:09:10;;;;;;;5.00;3.75;;;18.10;79.10;;;;;;4995833;28;20033;-68
2022/06/29 01:11:36;;;;;;;4.18;3.88;;;18.10;78.90;;;;;;4997083;28;20026;-67
2022/06/29 01:14:02;;;;;;;3.88;3.58;;;18.10;79.00;;;;;;4996554;28;20502;-67
2022/06/29 01:16:28;;;;;;;4.75;4.00;;;18.10;79.10;;;;;;4999103;28;20072;-68
2022/06/29 01:18:54;;;;;;;4.75;4.35;;;18.00;79.20;;;;;;4998277;28;20125;-68
2022/06/29 01:21:22;;;;;;;4.90;4.50;;;18.00;79.40;;;;;;4996695;28;20042;-68
2022/06/29 01:23:48;;;;;;;4.50;4.20;;;18.00;79.40;;;;;;4998678;28;20034;-68
2022/06/29 01:26:14;;;;;;;4.03;3.72;;;18.00;79.60;;;;;;4998364;28;20031;-68
2022/06/29 01:28:44;;;;;;;4.43;4.03;;;18.00;79.80;;;;;;4996944;28;20026;-67
2022/06/29 01:31:14;;;;;;;4.38;3.95;;;18.00;80.10;;;;;;4998085;28;20036;-68
2022/06/29 01:33:40;;;;;;;4.55;4.03;;;18.00;80.60;;;;;;4998079;28;20030;-68
2022/06/29 01:36:06;;;;;;;4.75;4.40;;;18.00;80.50;;;;;;4997247;28;20475;-68
2022/06/29 01:38:31;;;;;;;5.18;4.68;;;18.00;80.60;;;;;;4996282;28;20404;-67
2022/06/29 01:40:57;;;;;;;5.20;4.78;;;18.10;80.70;;;;;;4996541;28;20048;-68
2022/06/29 01:43:23;;;;;;;5.40;4.30;;;18.10;80.80;;;;;;4995122;28;20108;-68
2022/06/29 01:45:48;;;;;;;4.60;4.25;;;18.10;80.80;;;;;;4996739;28;20030;-67
2022/06/29 01:48:14;;;;;;;4.57;4.18;;;18.10;80.80;;;;;;4996939;28;20114;-68
2022/06/29 01:50:40;;;;;;;5.30;4.68;;;18.10;80.80;;;;;;4999653;28;20034;-67
2022/06/29 01:53:05;;;;;;;5.25;4.85;;;18.10;81.00;;;;;;4996179;28;20042;-68
2022/06/29 01:55:31;;;;;;;5.28;4.78;;;18.20;81.00;;;;;;4998355;28;20034;-68
2022/06/29 01:57:56;;;;;;;5.45;4.45;;;18.20;81.10;;;;;;5000426;28;20050;-68
2022/06/29 02:00:22;;;;;;;5.35;4.53;;;18.20;81.20;;;;;;4996967;28;20038;-68
2022/06/29 02:02:47;;;;;;;5.95;4.88;;;18.20;81.30;;;;;;4995483;28;20381;-67
2022/06/29 02:05:14;;;;;;;6.90;4.95;;;18.20;81.20;;;;;;4996941;28;20524;-68
2022/06/29 02:07:40;;;;;;;5.80;5.35;;;18.30;81.30;;;;;;4998335;28;20042;-68
2022/06/29 02:10:06;;;;;;;6.05;5.20;;;18.30;81.40;;;;;;4999501;28;20037;-67
2022/06/29 02:12:32;;;;;;;6.75;4.80;;;18.40;81.60;;;;;;4992799;28;20050;-67
2022/06/29 02:14:58;;;;;;;5.60;4.95;;;18.40;81.70;;;;;;4997088;28;20049;-68
2022/06/29 02:17:24;;;;;;;5.50;5.00;;;18.40;81.70;;;;;;4996658;28;20476;-68
2022/06/29 02:19:49;;;;;;;5.25;4.85;;;18.50;81.50;;;;;;4997865;28;20072;-68
2022/06/29 02:24:52;;;;;;;5.22;4.72;;;18.50;81.50;;;;;;5875008;23;19925;-68
2022/06/29 02:27:17;;;;;;;6.55;5.07;;;18.50;81.70;;;;;;4957076;28;20077;-68
2022/06/29 02:29:43;;;;;;;5.40;4.90;;;18.60;81.50;;;;;;4960584;28;20887;-68
2022/06/29 02:34:53;;;;;;;8.30;5.07;;;18.60;81.30;;;;;;4959564;28;20576;-68
2022/06/29 02:37:18;;;;;;;6.18;5.25;;;18.60;81.30;;;;;;4959522;28;20031;-68
2022/06/29 02:39:44;;;;;;;8.13;5.22;;;18.70;81.60;;;;;;4961195;28;20035;-68
2022/06/29 02:42:11;;;;;;;8.13;5.43;;;18.70;81.60;;;;;;4957260;28;20043;-68
2022/06/29 02:44:40;;;;;;;5.82;5.32;;;18.70;81.50;;;;;;4961338;28;20169;-68
2022/06/29 02:47:06;;;;;;;6.40;5.85;;;18.70;81.60;;;;;;4959307;28;20026;-68
2022/06/29 02:49:32;;;;;;;6.38;5.30;;;18.70;81.60;;;;;;4960188;28;20055;-68
2022/06/29 02:51:58;;;;;;;6.63;5.93;;;18.70;81.60;;;;;;4960288;28;20039;-68
2022/06/29 02:54:24;;;;;;;7.15;5.95;;;18.70;81.50;;;;;;4964694;28;20445;-68
2022/06/29 02:56:49;;;;;;;6.50;5.90;;;18.70;81.80;;;;;;4961122;28;20043;-69
2022/06/29 02:59:15;;;;;;;6.95;6.35;;;18.60;81.70;;;;;;4961210;28;20058;-68
2022/06/29 03:01:41;;;;;;;7.57;6.40;;;18.60;81.80;;;;;;4960351;28;20513;-69
2022/06/29 03:04:07;;;;;;;9.02;6.55;;;18.60;81.90;;;;;;4961644;28;20387;-68
2022/06/29 03:06:32;;;;;;;9.23;6.25;;;18.60;81.90;;;;;;4959441;28;20111;-68
2022/06/29 03:08:58;;;;;;;7.60;6.40;;;18.60;82.00;;;;;;4960739;28;20066;-68
2022/06/29 03:11:24;;;;;;;6.75;6.07;;;18.50;82.00;;;;;;4960674;28;20521;-68
2022/06/29 03:13:49;;;;;;;7.35;6.22;;;18.50;81.90;;;;;;4959298;28;20038;-68
2022/06/29 03:16:15;;;;;;;6.97;6.10;;;18.50;81.80;;;;;;4960791;28;20065;-68
2022/06/29 03:18:41;;;;;;;9.95;6.60;;;18.50;81.90;;;;;;4966363;28;20030;-69
2022/06/29 03:21:07;;;;;;;7.97;7.20;;;18.50;81.90;;;;;;4959644;28;20489;-68
2022/06/29 03:23:32;;;;;;;9.48;8.15;;;18.40;81.90;;;;;;4956658;28;20058;-67
2022/06/29 03:25:58;;;;;;;9.25;7.88;;;18.40;81.90;;;;;;4959704;28;20751;-68
2022/06/29 03:28:24;;;;;;;9.65;8.23;;;18.40;81.90;;;;;;4958109;28;20122;-69
2022/06/29 03:30:49;;;;;;;11.40;7.75;;;18.30;81.90;;;;;;4961289;28;20382;-68
2022/06/29 03:33:15;;;;;;;9.40;8.48;;;18.30;82.10;;;;;;4960156;28;20054;-68
2022/06/29 03:35:40;;;;;;;9.38;8.43;;;18.20;82.20;;;;;;4960198;28;20508;-69
2022/06/29 03:38:06;;;;;;;11.10;8.55;;;18.20;82.40;;;;;;4958250;28;20039;-68
2022/06/29 03:40:32;;;;;;;10.80;7.97;;;18.20;82.50;;;;;;4956134;28;20038;-69
2022/06/29 03:42:57;;;;;;;8.57;7.68;;;18.20;82.50;;;;;;4960181;28;20042;-68
2022/06/29 03:45:23;;;;;;;11.15;8.52;;;18.20;83.40;;;;;;4962104;28;20513;-68
2022/06/29 03:47:49;;;;;;;9.18;8.10;;;18.20;82.70;;;;;;4960725;28;20039;-68
2022/06/29 03:50:16;;;;;;;9.70;7.93;;;18.20;82.70;;;;;;4959142;28;20038;-68
2022/06/29 03:52:41;;;;;;;8.85;7.97;;;18.20;82.70;;;;;;4955987;28;20045;-68
2022/06/29 03:55:07;;;;;;;8.93;7.97;;;18.20;82.80;;;;;;4961959;28;20039;-69
2022/06/29 03:57:33;;;;;;;9.05;8.25;;;18.20;82.80;;;;;;4958443;28;20057;-68
2022/06/29 03:59:59;;;;;;;10.27;7.78;;;18.20;82.90;;;;;;4958302;28;20502;-69
2022/06/29 04:02:25;;;;;;;11.57;8.25;;;18.20;83.00;;;;;;4956166;28;20035;-68
2022/06/29 04:04:51;;;;;;;11.13;8.05;;;18.20;83.00;;;;;;4962006;28;20669;-68
2022/06/29 04:07:17;;;;;;;9.82;7.97;;;18.30;83.00;;;;;;4956147;28;20057;-68
2022/06/29 04:09:43;;;;;;;8.63;7.63;;;18.30;83.80;;;;;;4954807;28;20471;-69
2022/06/29 04:12:09;;;;;;;10.38;7.40;;;18.40;82.90;;;;;;4956053;28;22326;-69
2022/06/29 04:14:34;;;;;;;8.13;7.22;;;18.40;82.90;;;;;;4972138;28;20058;-68
2022/06/29 04:17:00;;;;;;;8.00;7.20;;;18.40;82.70;;;;;;4956102;28;20450;-66
2022/06/29 04:19:26;;;;;;;8.50;7.70;;;18.50;82.70;;;;;;4959209;28;20049;-68
2022/06/29 04:21:53;;;;;;;8.48;7.45;;;18.50;82.70;;;;;;4956950;28;20117;-69
2022/06/29 04:24:18;;;;;;;7.93;7.13;;;18.50;82.80;;;;;;4955772;28;20408;-69
2022/06/29 04:26:44;;;;;;;8.80;7.90;;;18.60;82.70;;;;;;4956966;28;20055;-69
2022/06/29 04:29:10;;;;;;;13.70;8.13;;;18.60;82.70;;;;;;4958731;28;20690;-68
2022/06/29 04:31:36;;;;;;;10.00;7.40;;;18.70;82.80;;;;;;4960816;28;20102;-68
2022/06/29 04:34:02;;;;;;;9.57;8.15;;;18.70;82.70;;;;;;4963306;28;20465;-69
2022/06/29 04:36:28;;;;;;;10.88;8.02;;;18.70;82.60;;;;;;4960579;28;20031;-69
2022/06/29 04:38:54;;;;;;;11.00;8.13;;;18.80;82.60;;;;;;4960116;28;20071;-69
2022/06/29 04:41:21;;;;;;;8.65;7.75;;;18.80;82.60;;;;;;4959330;28;20073;-69
2022/06/29 04:43:47;;;;;;;9.75;8.45;;;18.80;82.50;;;;;;4963898;28;20050;-67
2022/06/29 04:46:19;;;;;;;12.55;8.52;;;18.90;82.60;;;;;;4962864;28;20401;-69
2022/06/29 04:48:49;;;;;;;9.85;8.95;;;18.90;82.50;;;;;;4963590;28;20526;-69
2022/06/29 04:51:18;;;;;;;10.07;9.07;;;19.00;82.60;;;;;;4960125;28;20026;-69
2022/06/29 04:53:47;;;;;;;10.98;8.57;;;19.00;82.40;;;;;;4962262;28;20449;-69
2022/06/29 04:56:14;;;;;;;10.38;8.68;;;19.00;82.20;;;;;;4962375;28;20058;-69
2022/06/29 04:58:40;;;;;;;11.60;8.25;;;19.00;82.00;;;;;;4963394;28;20089;-69
2022/06/29 05:01:05;;;;;;;11.68;9.23;;;19.10;82.10;;;;;;4961652;28;20035;-69
2022/06/29 05:03:31;;;;;;;10.02;8.98;;;19.10;82.20;;;;;;4959797;28;20058;-69
2022/06/29 05:05:57;;;;;;;9.93;8.93;;;19.10;82.10;;;;;;4964251;28;20054;-69
2022/06/29 05:08:22;;;;;;;10.10;9.20;;;19.20;82.20;;;;;;4963890;28;20042;-67
2022/06/29 05:10:48;;;;;;;10.48;8.57;;;19.20;82.20;;;;;;4959586;28;20078;-69
2022/06/29 05:13:14;;;;;;;9.55;8.60;;;19.20;82.20;;;;;;4964167;28;20418;-69
2022/06/29 05:15:40;;;;;;;10.32;8.90;;;19.20;82.20;;;;;;4959996;28;20134;-69
2022/06/29 05:18:06;;;;;;;10.20;9.02;;;19.30;82.30;;;;;;4964399;28;20059;-68
2022/06/29 05:20:32;;;;;;;9.50;8.60;;;19.30;82.40;;;;;;4961631;28;20554;-68
2022/06/29 05:22:58;;;;;;;9.75;8.70;;;19.30;82.40;;;;;;4959128;28;20043;-69
2022/06/29 05:25:23;;;;;;;12.52;8.50;;;19.40;82.40;;;;;;4962603;28;20462;-69
2022/06/29 05:27:49;;;;;;;10.77;8.52;;;19.40;82.20;;;;;;4963821;28;20050;-69
2022/06/29 05:30:16;;;;;;;10.38;8.98;;;19.40;82.20;;;;;;4961336;28;20629;-66
2022/06/29 05:32:42;;;;;;;11.95;9.43;;;19.50;82.20;;;;;;4961360;28;20285;-69
2022/06/29 05:35:08;;;;;;;12.20;8.45;;;19.50;82.20;;;;;;4962349;28;20039;-69
2022/06/29 05:37:34;;;;;;;11.43;9.52;;;19.50;82.20;;;;;;4963079;28;20045;-69
2022/06/29 05:40:00;;;;;;;15.90;9.18;;;19.60;82.40;;;;;;4962327;28;20040;-68
2022/06/29 05:42:25;;;;;;;10.73;8.68;;;19.60;82.40;;;;;;4959315;28;20057;-68
2022/06/29 05:44:51;;;;;;;9.07;8.23;;;19.70;82.30;;;;;;4963836;28;20502;-68
2022/06/29 05:47:17;;;;;;;9.55;7.90;;;19.70;82.20;;;;;;4961750;28;20322;-68
2022/06/29 05:49:43;;;;;;;9.80;8.63;;;19.80;82.20;;;;;;4966141;28;20034;-68
2022/06/29 05:52:09;;;;;;;9.48;7.95;;;19.80;82.10;;;;;;4964717;28;20154;-69
2022/06/29 05:54:35;;;;;;;8.98;7.90;;;19.80;82.00;;;;;;4964477;28;20239;-66
2022/06/29 05:57:00;;;;;;;8.90;7.40;;;19.90;82.00;;;;;;4966612;28;20028;-66
2022/06/29 05:59:26;;;;;;;8.02;7.28;;;20.00;82.00;;;;;;4966730;28;20058;-67
2022/06/29 06:01:52;;;;;;;7.95;7.25;;;20.00;81.70;;;;;;4963170;28;20524;-66
2022/06/29 06:04:17;;;;;;;9.80;7.28;;;20.10;81.60;;;;;;4968231;28;20042;-66
2022/06/29 06:06:43;;;;;;;9.60;7.03;;;20.10;81.50;;;;;;4962184;28;20093;-66
2022/06/29 06:09:09;;;;;;;7.50;6.80;;;20.10;81.20;;;;;;4962927;28;20031;-69
2022/06/29 06:11:35;;;;;;;7.03;6.40;;;20.20;81.20;;;;;;4961583;28;20036;-69
2022/06/29 06:14:01;;;;;;;7.43;6.65;;;20.20;81.30;;;;;;4966912;28;20042;-69
2022/06/29 06:16:26;;;;;;;7.75;6.65;;;20.30;81.10;;;;;;4967857;28;20544;-68
2022/06/29 06:18:52;;;;;;;7.93;7.15;;;20.30;80.80;;;;;;4964566;28;20035;-66
2022/06/29 06:21:18;;;;;;;7.75;7.05;;;20.30;80.60;;;;;;4963716;28;20042;-66
2022/06/29 06:23:43;;;;;;;8.65;6.43;;;20.30;80.50;;;;;;4963778;28;20034;-68
2022/06/29 06:26:09;;;;;;;7.30;6.70;;;20.40;80.60;;;;;;4962216;28;20037;-69
2022/06/29 06:28:34;;;;;;;7.18;6.38;;;20.40;80.50;;;;;;4962953;28;20528;-69
2022/06/29 06:31:00;;;;;;;9.02;7.20;;;20.40;80.30;;;;;;4963980;28;20049;-69
2022/06/29 06:33:26;;;;;;;8.27;7.47;;;20.50;80.40;;;;;;4980280;28;20039;-69
2022/06/29 06:35:52;;;;;;;7.45;6.75;;;20.50;80.30;;;;;;4966710;28;20109;-69
2022/06/29 06:38:18;;;;;;;8.18;7.18;;;20.50;80.30;;;;;;4963015;28;20035;-69
2022/06/29 06:43:28;;;;;;;7.28;6.57;;;20.50;79.80;;;;;;4967983;28;20085;-69
2022/06/29 06:45:54;;;;;;;7.50;6.65;;;20.50;79.90;;;;;;4968464;28;20043;-69
2022/06/29 06:48:19;;;;;;;7.55;6.90;;;20.60;80.10;;;;;;4968131;28;20035;-69
2022/06/29 06:50:45;;;;;;;7.47;6.88;;;20.60;80.00;;;;;;4962618;28;20533;-69
2022/06/29 06:53:10;;;;;;;7.28;6.68;;;20.60;79.80;;;;;;4964817;28;20162;-69
2022/06/29 06:55:36;;;;;;;7.25;6.65;;;20.60;79.70;;;;;;4963186;28;20042;-69
2022/06/29 06:58:02;;;;;;;8.30;6.43;;;20.60;79.80;;;;;;4963331;28;20121;-69
2022/06/29 07:00:29;;;;;;;6.75;6.15;;;20.70;80.00;;;;;;4963320;28;20537;-69
2022/06/29 07:02:54;;;;;;;7.80;6.35;;;20.70;79.80;;;;;;4964114;28;20038;-69
2022/06/29 07:05:20;;;;;;;6.85;5.85;;;20.80;79.30;;;;;;4964975;28;20047;-69
2022/06/29 07:07:46;;;;;;;8.27;5.88;;;20.80;79.50;;;;;;4963373;28;20118;-68
2022/06/29 07:10:12;;;;;;;6.30;5.72;;;20.80;79.30;;;;;;4965215;28;20046;-69
2022/06/29 07:12:38;;;;;;;5.95;5.45;;;20.90;79.10;;;;;;4963852;28;20042;-69
2022/06/29 07:15:04;;;;;;;5.88;5.38;;;20.90;78.90;;;;;;4962551;28;20049;-69
2022/06/29 07:17:30;;;;;;;6.22;5.47;;;21.00;78.80;;;;;;4963528;28;20046;-69
2022/06/29 07:19:56;;;;;;;6.45;5.78;;;21.00;78.70;;;;;;4966630;28;20517;-69
2022/06/29 07:22:22;;;;;;;6.03;5.40;;;21.00;78.70;;;;;;4961982;28;20038;-68
2022/06/29 07:24:47;;;;;;;6.20;5.70;;;21.00;78.60;;;;;;4964021;28;20035;-69
2022/06/29 07:27:13;;;;;;;6.63;5.70;;;21.10;78.60;;;;;;4963368;28;20042;-69
2022/06/29 07:29:39;;;;;;;5.88;5.30;;;21.10;78.40;;;;;;4962301;28;20557;-69
2022/06/29 07:32:05;;;;;;;6.57;5.90;;;21.10;78.40;;;;;;4964260;28;20527;-69
2022/06/29 07:34:30;;;;;;;5.85;5.35;;;21.20;78.60;;;;;;4962475;28;20033;-70
2022/06/29 07:36:56;;;;;;;6.35;5.75;;;21.20;78.50;;;;;;4966510;28;20039;-69
2022/06/29 07:39:22;;;;;;;6.18;5.68;;;21.20;78.30;;;;;;4964707;28;20034;-69
2022/06/29 07:41:47;;;;;;;6.20;5.60;;;21.20;78.20;;;;;;4964890;28;20030;-69
2022/06/29 07:44:13;;;;;;;6.20;5.60;;;21.30;78.30;;;;;;4962330;28;20109;-69
2022/06/29 07:46:39;;;;;;;5.43;5.03;;;21.30;78.20;;;;;;4963022;28;20034;-69
2022/06/29 07:49:04;;;;;;;6.22;5.63;;;21.40;78.20;;;;;;4963335;28;20422;-69
2022/06/29 07:51:30;;;;;;;5.75;5.28;;;21.40;78.00;;;;;;4961991;28;20162;-69
2022/06/29 07:53:56;;;;;;;5.90;5.38;;;21.50;78.00;;;;;;4962492;28;20078;-69
2022/06/29 07:56:21;;;;;;;6.05;5.55;;;21.50;77.90;;;;;;4963603;28;20039;-69
2022/06/29 07:58:47;;;;;;;5.80;5.30;;;21.60;77.90;;;;;;4959985;28;20038;-69
2022/06/29 08:01:13;;;;;;;6.20;5.68;;;21.60;77.90;;;;;;4960916;28;20514;-69
2022/06/29 08:03:38;;;;;;;6.13;5.53;;;21.70;77.90;;;;;;4956215;28;20035;-69
2022/06/29 08:06:07;;;;;;;7.43;4.68;;;21.70;77.50;;;;;;4960648;28;20053;-69
2022/06/29 08:08:32;;;;;;;5.40;5.00;;;21.80;77.40;;;;;;4962660;28;20391;-69
2022/06/29 08:10:58;;;;;;;9.93;5.40;;;21.80;77.40;;;;;;4959770;28;20054;-69
2022/06/29 08:13:24;;;;;;;6.03;5.53;;;21.90;77.20;;;;;;4959198;28;20076;-70
2022/06/29 08:15:50;;;;;;;6.15;5.68;;;22.00;76.50;;;;;;4959494;28;20070;-69
2022/06/29 08:18:16;;;;;;;6.22;5.63;;;22.00;76.50;;;;;;4959568;28;20906;-69
2022/06/29 08:20:43;;;;;;;5.53;5.07;;;22.10;76.60;;;;;;4962715;28;20621;-68
2022/06/29 08:23:09;;;;;;;5.90;5.40;;;22.10;76.50;;;;;;4962261;28;20045;-69
2022/06/29 08:25:34;;;;;;;5.40;5.00;;;22.20;76.20;;;;;;4963641;28;20035;-69
2022/06/29 08:28:01;;;;;;;6.15;5.63;;;22.30;76.10;;;;;;4960760;28;20038;-69
2022/06/29 08:30:27;;;;;;;6.22;5.65;;;22.30;75.70;;;;;;4961281;28;20355;-69
2022/06/29 08:32:53;;;;;;;7.32;5.75;;;22.40;75.10;;;;;;4960738;28;20367;-69
2022/06/29 08:35:19;;;;;;;6.18;5.68;;;22.50;74.80;;;;;;4958646;28;20043;-69
2022/06/29 08:37:46;;;;;;;6.55;5.95;;;22.50;74.80;;;;;;4961440;28;20045;-69
2022/06/29 08:40:14;;;;;;;6.70;6.10;;;22.60;74.50;;;;;;4962746;28;20402;-69
2022/06/29 08:42:40;;;;;;;6.05;5.60;;;22.70;74.00;;;;;;4960661;28;20073;-69
2022/06/29 08:45:08;;;;;;;6.07;5.45;;;22.80;73.90;;;;;;4961378;28;20065;-69
2022/06/29 08:47:34;;;;;;;6.45;5.82;;;22.80;73.80;;;;;;4959650;28;20062;-69
2022/06/29 08:50:03;;;;;;;6.13;5.53;;;22.90;73.90;;;;;;4963188;28;20116;-69
2022/06/29 08:52:29;;;;;;;5.47;4.97;;;23.00;73.70;;;;;;4962328;28;20403;-70
2022/06/29 08:54:55;;;;;;;6.60;6.00;;;23.10;74.00;;;;;;4964001;28;20067;-69
2022/06/29 08:57:25;;;;;;;6.93;5.15;;;23.20;72.50;;;;;;4961740;28;20458;-69
2022/06/29 08:59:53;;;;;;;7.03;5.57;;;23.30;72.00;;;;;;4963859;28;20027;-69
2022/06/29 09:02:18;;;;;;;5.45;4.95;;;23.40;71.60;;;;;;4963053;28;20133;-69
2022/06/29 09:04:44;;;;;;;5.10;4.60;;;23.60;71.80;;;;;;4961537;28;20157;-69
2022/06/29 09:07:09;;;;;;;4.90;4.50;;;23.70;71.90;;;;;;4963388;28;20053;-69
2022/06/29 09:10:10;;;;;;;4.93;4.40;;;23.80;71.20;;;;;;4963542;28;20037;-69
2022/06/29 09:12:36;;;;;;;5.43;4.15;;;23.90;69.30;;;;;;4963531;28;20034;-69
2022/06/29 09:15:04;;;;;;;6.03;4.70;;;24.10;70.20;;;;;;4965927;28;20043;-69
2022/06/29 09:17:31;;;;;;;5.60;5.15;;;24.30;70.00;;;;;;4968132;28;20027;-69
2022/06/29 09:19:56;;;;;;;5.82;5.22;;;24.40;69.70;;;;;;4968384;28;20040;-69
2022/06/29 09:22:22;;;;;;;4.40;4.00;;;24.50;69.60;;;;;;4970542;28;20035;-69
2022/06/29 09:24:49;;;;;;;4.57;3.47;;;24.70;68.80;;;;;;4961437;28;20125;-69
2022/06/29 09:27:15;;;;;;;5.50;3.70;;;24.80;68.60;;;;;;4966733;28;20046;-69
2022/06/29 09:29:42;;;;;;;3.72;3.42;;;24.90;67.30;;;;;;4967409;28;20046;-69
2022/06/29 09:32:09;;;;;;;3.83;3.55;;;25.00;65.90;;;;;;4963752;28;20038;-69
2022/06/29 09:34:34;;;;;;;4.63;4.03;;;25.00;65.90;;;;;;4965466;28;20070;-69
2022/06/29 09:37:02;;;;;;;5.07;4.53;;;25.00;65.60;;;;;;4964346;28;20035;-69
2022/06/29 09:39:41;;;;;;;3.97;3.67;;;25.00;65.20;;;;;;4965552;28;20122;-69
2022/06/29 09:42:30;;;;;;;6.40;4.43;;;25.10;64.50;;;;;;4965849;28;20119;-69
2022/06/29 09:44:55;;;;;;;4.32;4.00;;;25.10;64.60;;;;;;4964210;28;20046;-69
2022/06/29 09:47:22;;;;;;;4.95;3.90;;;25.20;65.20;;;;;;4962878;28;20035;-69
2022/06/29 09:50:00;;;;;;;3.33;3.03;;;25.20;65.50;;;;;;4960551;28;20055;-70
2022/06/29 09:52:26;;;;;;;4.50;2.83;;;25.30;63.20;;;;;;4964774;28;20417;-70
2022/06/29 09:54:52;;;;;;;3.40;3.10;;;25.20;63.90;;;;;;4965891;28;20043;-69
2022/06/29 09:57:23;;;;;;;3.38;2.58;;;25.30;63.90;;;;;;4963365;28;20035;-69
2022/06/29 10:02:43;;;;;;;3.50;2.90;;;25.40;63.50;;;;;;4963503;28;20057;-69
2022/06/29 10:05:13;;;;;;;2.97;2.78;;;25.40;63.90;;;;;;4967448;28;20045;-69
2022/06/29 10:07:45;;;;;;;3.13;2.80;;;25.50;63.00;;;;;;4966214;28;20033;-69
2022/06/29 10:10:13;;;;;;;3.15;2.67;;;25.50;62.60;;;;;;4964846;28;20482;-69
2022/06/29 10:16:00;;;;;;;3.35;2.55;;;25.60;62.00;;;;;;4963886;28;20466;-69
2022/06/29 10:18:51;;;;;;;3.08;2.78;;;25.70;61.80;;;;;;4963655;28;20474;-70
2022/06/29 10:21:20;;;;;;;3.13;2.35;;;25.70;62.20;;;;;;4964579;28;20664;-69
2022/06/29 10:23:46;;;;;;;4.07;2.50;;;25.80;62.20;;;;;;4962412;28;20492;-66
2022/06/29 10:26:36;;;;;;;2.85;2.47;;;25.80;63.10;;;;;;4965621;28;20049;-70
2022/06/29 10:29:07;;;;;;;3.25;2.20;;;25.90;60.90;;;;;;4962677;28;20045;-69
2022/06/29 10:34:32;;;;;;;2.78;2.50;;;26.00;61.60;;;;;;4960739;28;20072;-69
2022/06/29 10:37:11;;;;;;;2.70;2.50;;;26.10;60.00;;;;;;4966299;28;20039;-70
2022/06/29 10:39:46;;;;;;;2.63;2.40;;;26.20;59.60;;;;;;4963181;28;20031;-69
2022/06/29 10:45:16;;;;;;;2.28;2.10;;;26.40;59.40;;;;;;4965630;28;20045;-69
2022/06/29 10:47:58;;;;;;;3.85;2.40;;;26.60;59.70;;;;;;4964545;28;20070;-70
2022/06/29 10:50:28;;;;;;;2.40;2.20;;;26.70;58.90;;;;;;4960808;28;20505;-68
2022/06/29 10:52:55;;;;;;;2.60;2.40;;;26.80;59.10;;;;;;4958239;28;20506;-70
2022/06/29 10:55:22;;;;;;;2.28;2.08;;;26.90;58.80;;;;;;4963102;28;20517;-67
2022/06/29 10:57:48;;;;;;;5.10;2.03;;;27.00;59.50;;;;;;4961990;28;20042;-68
2022/06/29 11:00:21;;;;;;;3.53;2.65;;;27.10;59.00;;;;;;4963489;28;20417;-67
2022/06/29 11:02:47;;;;;;;2.53;2.10;;;27.20;58.40;;;;;;4965134;28;20038;-67
2022/06/29 11:05:13;;;;;;;3.55;2.20;;;27.30;59.10;;;;;;4962362;28;20037;-67
2022/06/29 11:13:23;;;;;;;2.60;2.40;;;27.50;57.70;;;;;;4962557;28;20066;-66
2022/06/29 11:15:50;;;;;;;4.63;2.40;;;27.50;57.10;;;;;;4965467;28;20506;-67
2022/06/29 11:18:21;;;;;;;2.28;2.17;;;27.50;57.90;;;;;;4963543;28;20042;-67
2022/06/29 11:20:51;;;;;;;4.07;2.60;;;27.50;57.30;;;;;;4961910;28;20042;-68
2022/06/29 11:23:18;;;;;;;3.05;2.60;;;27.50;56.50;;;;;;4969456;28;20046;-67
2022/06/29 11:25:49;;;;;;;2.80;2.60;;;27.40;56.20;;;;;;4960973;28;20048;-67
2022/06/29 11:28:19;;;;;;;3.35;2.45;;;27.30;56.30;;;;;;4963807;28;20045;-67
2022/06/29 11:31:00;;;;;;;3.10;2.55;;;27.20;56.60;;;;;;4963285;28;20045;-67
2022/06/29 11:33:49;;;;;;;2.90;2.60;;;27.20;55.60;;;;;;4961590;28;20039;-67
2022/06/29 11:36:26;;;;;;;2.80;1.95;;;27.20;56.40;;;;;;4963409;28;20038;-67
2022/06/29 11:38:57;;;;;;;2.20;2.00;;;27.20;56.90;;;;;;4964258;28;20027;-67
2022/06/29 11:41:25;;;;;;;2.67;2.22;;;27.20;56.40;;;;;;4962622;28;20037;-68
2022/06/29 11:44:01;;;;;;;2.42;2.20;;;27.20;56.30;;;;;;4962575;28;20031;-67
2022/06/29 11:46:29;;;;;;;2.78;2.05;;;27.10;54.80;;;;;;4962326;28;20039;-67
2022/06/29 11:51:49;;;;;;;1.95;1.77;;;27.20;56.50;;;;;;4957830;28;20037;-69
2022/06/29 11:54:15;;;;;;;3.70;1.80;;;27.20;55.50;;;;;;4963327;28;20035;-67
2022/06/29 11:56:43;;;;;;;2.03;1.83;;;27.20;56.00;;;;;;4974420;28;20510;-67
2022/06/29 11:59:15;;;;;;;3.60;2.15;;;27.20;56.20;;;;;;4962418;28;20413;-68
2022/06/29 12:01:51;;;;;;;2.25;2.05;;;27.20;56.00;;;;;;4959940;28;20034;-67
2022/06/29 12:04:27;;;;;;;5.55;2.08;;;27.20;56.10;;;;;;4961738;28;20522;-67
2022/06/29 12:07:10;;;;;;;2.03;1.92;;;27.30;56.00;;;;;;4976066;28;20093;-67
2022/06/29 12:09:38;;;;;;;2.03;1.80;;;27.40;55.90;;;;;;4960328;28;20521;-67
2022/06/29 12:12:08;;;;;;;2.38;2.17;;;27.40;56.60;;;;;;4959961;28;20039;-67
2022/06/29 12:14:35;;;;;;;2.40;1.90;;;27.50;56.20;;;;;;4961407;28;20043;-67
2022/06/29 12:17:01;;;;;;;4.25;2.35;;;27.60;56.70;;;;;;4962857;28;20118;-67
2022/06/29 12:19:27;;;;;;;2.20;2.08;;;27.60;56.20;;;;;;4960000;28;20045;-67
2022/06/29 12:21:53;;;;;;;2.83;2.05;;;27.70;55.80;;;;;;4961902;28;20395;-67
2022/06/29 12:24:20;;;;;;;2.20;2.00;;;27.70;56.60;;;;;;4961840;28;20158;-67
2022/06/29 12:26:46;;;;;;;2.40;2.00;;;27.70;55.10;;;;;;4959644;28;20042;-67
2022/06/29 12:29:13;;;;;;;2.47;2.00;;;27.70;54.60;;;;;;4960264;28;20074;-68
2022/06/29 12:31:42;;;;;;;3.63;2.30;;;27.70;55.00;;;;;;4961568;28;20034;-67
2022/06/29 12:34:09;;;;;;;3.50;2.05;;;27.70;54.80;;;;;;4962869;28;20042;-67
2022/06/29 12:36:35;;;;;;;1.95;1.85;;;27.60;55.40;;;;;;4960003;28;20089;-67
2022/06/29 12:39:00;;;;;;;2.05;1.70;;;27.70;55.00;;;;;;4961872;28;20150;-67
2022/06/29 12:41:26;;;;;;;1.83;1.60;;;27.70;55.50;;;;;;4958024;28;20090;-67
2022/06/29 12:43:52;;;;;;;3.45;1.90;;;27.70;55.10;;;;;;4961480;28;20038;-67
2022/06/29 12:46:18;;;;;;;3.40;2.20;;;27.80;56.00;;;;;;4961964;28;20046;-67
2022/06/29 12:48:44;;;;;;;3.35;1.90;;;27.80;54.80;;;;;;4961561;28;20050;-67
2022/06/29 12:51:09;;;;;;;2.17;1.90;;;27.80;54.80;;;;;;4960082;28;20031;-67
2022/06/29 12:53:36;;;;;;;2.42;2.00;;;27.80;54.70;;;;;;4962446;28;20402;-68
2022/06/29 12:56:05;;;;;;;2.35;1.75;;;27.80;54.10;;;;;;4966736;28;20047;-67
2022/06/29 12:58:31;;;;;;;1.70;1.60;;;27.80;54.60;;;;;;4962411;28;20066;-68
2022/06/29 13:00:57;;;;;;;2.50;1.90;;;27.90;54.60;;;;;;4962663;28;20082;-66
2022/06/29 13:03:23;;;;;;;3.25;1.88;;;27.90;53.80;;;;;;4965025;28;20122;-67
2022/06/29 13:05:49;;;;;;;2.83;1.80;;;27.90;53.70;;;;;;4965680;28;20050;-67
2022/06/29 13:08:15;;;;;;;2.88;1.50;;;27.80;54.60;;;;;;4964444;28;20049;-67
2022/06/29 13:10:41;;;;;;;5.03;1.85;;;27.80;54.70;;;;;;4968508;28;20062;-67
2022/06/29 13:13:07;;;;;;;4.03;1.70;;;27.80;54.40;;;;;;4963240;28;20121;-67